createdAt,value
2023-02-14T00:02:12.302Z,0.62
2023-02-14T00:04:43.377Z,0.25
2023-02-14T00:07:10.290Z,0.20
2023-02-14T00:09:36.990Z,0.23
2023-02-14T00:12:03.888Z,0.21
2023-02-14T00:14:48.823Z,0.10
2023-02-14T00:17:15.606Z,0.14
2023-02-14T00:19:43.226Z,0.11
2023-02-14T00:22:09.692Z,0.17
2023-02-14T00:24:36.107Z,0.11
2023-02-14T00:27:02.501Z,0.11
2023-02-14T00:29:31.377Z,0.12
2023-02-14T00:31:58.141Z,-0.03
2023-02-14T00:34:24.752Z,0.12
2023-02-14T00:36:52.328Z,0.11
2023-02-14T00:39:19.259Z,0.13
2023-02-14T00:41:48.727Z,0.03
2023-02-14T00:44:16.898Z,0.14
2023-02-14T00:46:44.280Z,0.28
2023-02-14T00:49:11.010Z,0.11
2023-02-14T00:51:37.875Z,0.04
2023-02-14T00:54:05.179Z,0.05
2023-02-14T00:56:32.073Z,-0.09
2023-02-14T00:58:58.604Z,-0.03
2023-02-14T01:01:25.057Z,-0.04
2023-02-14T01:03:51.598Z,0.05
2023-02-14T01:06:18.468Z,0.02
2023-02-14T01:08:44.875Z,-0.08
2023-02-14T01:11:14.348Z,-0.01
2023-02-14T01:13:42.102Z,0.04
2023-02-14T01:16:11.023Z,0.07
2023-02-14T01:18:38.085Z,0.04
2023-02-14T01:21:16.690Z,-0.12
2023-02-14T01:23:44.079Z,-0.02
2023-02-14T01:26:11.372Z,0.00
2023-02-14T01:28:38.969Z,-0.08
2023-02-14T01:31:07.627Z,-0.12
2023-02-14T01:33:34.702Z,-0.24
2023-02-14T01:36:01.246Z,-0.09
2023-02-14T01:38:27.737Z,-0.11
2023-02-14T01:40:55.209Z,-0.14
2023-02-14T01:43:21.944Z,-0.04
2023-02-14T01:45:49.273Z,-0.17
2023-02-14T01:48:21.312Z,-0.08
2023-02-14T01:50:52.138Z,-0.01
2023-02-14T01:53:24.509Z,-0.20
2023-02-14T01:55:58.795Z,-0.33
2023-02-14T01:58:29.431Z,-0.18
2023-02-14T02:00:56.924Z,-0.32
2023-02-14T02:03:26.743Z,-0.22
2023-02-14T02:05:57.357Z,0.06
2023-02-14T02:08:25.081Z,0.09
2023-02-14T02:10:54.038Z,0.02
2023-02-14T02:13:21.941Z,-0.03
2023-02-14T02:16:14.442Z,0.07
2023-02-14T02:18:56.752Z,0.04
2023-02-14T02:21:54.018Z,0.00
2023-02-14T02:24:30.953Z,0.00
2023-02-14T02:27:32.939Z,0.06
2023-02-14T02:30:36.467Z,-0.10
2023-02-14T02:33:32.576Z,-0.26
2023-02-14T02:36:22.996Z,-0.34
2023-02-14T02:39:06.336Z,-0.25
2023-02-14T02:41:45.975Z,-0.24
2023-02-14T02:44:17.076Z,-0.42
2023-02-14T02:46:54.195Z,-0.71
2023-02-14T02:49:59.127Z,-0.78
2023-02-14T02:52:49.963Z,-0.50
2023-02-14T02:55:24.364Z,-0.38
2023-02-14T02:57:53.264Z,-0.51
2023-02-14T03:00:22.350Z,-0.51
2023-02-14T03:03:10.925Z,-0.51
2023-02-14T03:05:37.902Z,-0.44
2023-02-14T03:08:05.799Z,-0.51
2023-02-14T03:10:37.707Z,-0.42
2023-02-14T03:13:43.073Z,-0.55
2023-02-14T03:16:33.135Z,-0.44
2023-02-14T03:19:59.587Z,-0.51
2023-02-14T03:22:40.725Z,-0.52
2023-02-14T03:25:15.884Z,-0.29
2023-02-14T03:27:49.250Z,-0.39
2023-02-14T03:30:24.513Z,-0.46
2023-02-14T03:32:59.562Z,-0.69
2023-02-14T03:35:32.226Z,-0.58
2023-02-14T03:38:07.684Z,-0.61
2023-02-14T03:40:39.939Z,-0.68
2023-02-14T03:43:10.721Z,-0.70
2023-02-14T03:45:43.866Z,-0.81
2023-02-14T03:48:14.203Z,-0.59
2023-02-14T03:50:43.996Z,-0.61
2023-02-14T03:53:12.490Z,-0.78
2023-02-14T03:55:45.571Z,-0.74
2023-02-14T03:58:19.119Z,-0.80
2023-02-14T04:00:49.278Z,-0.96
2023-02-14T04:03:17.428Z,-0.64
2023-02-14T04:05:51.457Z,-0.59
2023-02-14T04:08:21.290Z,-0.62
2023-02-14T04:10:48.637Z,-0.65
2023-02-14T04:13:15.089Z,-0.93
2023-02-14T04:15:41.700Z,-1.04
2023-02-14T04:18:26.871Z,-0.82
2023-02-14T04:20:53.304Z,-0.83
2023-02-14T04:23:19.872Z,-0.82
2023-02-14T04:25:46.349Z,-0.77
2023-02-14T04:28:14.069Z,-0.75
2023-02-14T04:30:40.717Z,-0.86
2023-02-14T04:33:07.687Z,-0.79
2023-02-14T04:35:34.781Z,-0.73
2023-02-14T04:38:05.192Z,-0.79
2023-02-14T04:40:31.689Z,-0.73
2023-02-14T04:42:59.502Z,-0.80
2023-02-14T04:45:26.702Z,-0.75
2023-02-14T04:47:53.441Z,-0.87
2023-02-14T04:50:20.124Z,-0.81
2023-02-14T04:52:46.663Z,-1.19
2023-02-14T04:55:13.254Z,-0.82
2023-02-14T04:57:39.761Z,-1.04
2023-02-14T05:00:07.495Z,-0.91
2023-02-14T05:02:34.697Z,-0.98
2023-02-14T05:05:01.168Z,-1.05
2023-02-14T05:07:27.827Z,-0.89
2023-02-14T05:09:54.374Z,-0.86
2023-02-14T05:12:21.052Z,-0.80
2023-02-14T05:14:47.890Z,-0.76
2023-02-14T05:17:14.443Z,-1.11
2023-02-14T05:19:41.601Z,-1.01
2023-02-14T05:22:08.215Z,-0.95
2023-02-14T05:24:34.750Z,-0.88
2023-02-14T05:27:01.301Z,-1.13
2023-02-14T05:29:28.163Z,-1.18
2023-02-14T05:31:54.609Z,-1.06
2023-02-14T05:34:21.876Z,-1.07
2023-02-14T05:36:49.096Z,-1.20
2023-02-14T05:39:18.079Z,-1.14
2023-02-14T05:41:44.513Z,-1.15
2023-02-14T05:44:13.606Z,-1.09
2023-02-14T05:46:40.177Z,-1.04
2023-02-14T05:49:06.781Z,-1.02
2023-02-14T05:51:33.315Z,-1.02
2023-02-14T05:54:01.050Z,-1.14
2023-02-14T05:56:27.602Z,-1.17
2023-02-14T05:58:54.043Z,-1.23
2023-02-14T06:01:20.615Z,-1.26
2023-02-14T06:03:47.108Z,-1.07
2023-02-14T06:06:13.736Z,-1.15
2023-02-14T06:08:40.314Z,-1.11
2023-02-14T06:11:07.785Z,-1.22
2023-02-14T06:13:34.387Z,-1.14
2023-02-14T06:16:03.111Z,-1.39
2023-02-14T06:18:29.629Z,-1.49
2023-02-14T06:20:56.582Z,-1.44
2023-02-14T06:23:25.378Z,-1.43
2023-02-14T06:25:51.839Z,-1.29
2023-02-14T06:28:19.090Z,-1.24
2023-02-14T06:30:46.343Z,-1.23
2023-02-14T06:33:13.034Z,-1.19
2023-02-14T06:35:39.564Z,-1.10
2023-02-14T06:38:05.983Z,-1.15
2023-02-14T06:40:32.633Z,-1.00
2023-02-14T06:42:59.158Z,-1.30
2023-02-14T06:45:26.378Z,-1.26
2023-02-14T06:47:52.857Z,-1.21
2023-02-14T06:50:19.494Z,-1.02
2023-02-14T06:52:45.944Z,-1.14
2023-02-14T06:55:13.155Z,-0.90
2023-02-14T06:57:39.840Z,-1.17
2023-02-14T07:00:07.764Z,-1.04
2023-02-14T07:02:34.954Z,-1.01
2023-02-14T07:05:01.482Z,-0.91
2023-02-14T07:07:28.005Z,-0.75
2023-02-14T07:09:54.746Z,-1.04
2023-02-14T07:12:21.252Z,-1.00
2023-02-14T07:14:47.656Z,-0.91
2023-02-14T07:17:14.098Z,-0.89
2023-02-14T07:19:41.248Z,-0.93
2023-02-14T07:22:07.735Z,-1.02
2023-02-14T07:24:34.207Z,-1.02
2023-02-14T07:27:00.733Z,-0.91
2023-02-14T07:29:27.401Z,-0.89
2023-02-14T07:31:54.063Z,-0.84
2023-02-14T07:34:20.760Z,-0.89
2023-02-14T07:36:47.909Z,-1.12
2023-02-14T07:39:14.666Z,-1.05
2023-02-14T07:41:41.172Z,-1.10
2023-02-14T07:44:09.917Z,-0.92
2023-02-14T07:46:36.520Z,-1.13
2023-02-14T07:49:03.331Z,-0.95
2023-02-14T07:51:30.054Z,-1.07
2023-02-14T07:53:57.131Z,-0.94
2023-02-14T07:56:23.529Z,-0.64
2023-02-14T07:58:50.002Z,-0.82
2023-02-14T08:01:16.602Z,-0.92
2023-02-14T08:03:45.143Z,-0.89
2023-02-14T08:06:11.945Z,-0.73
2023-02-14T08:08:38.343Z,-0.57
2023-02-14T08:11:05.602Z,1.71
2023-02-14T08:13:32.146Z,2.23
2023-02-14T08:16:04.817Z,3.01
2023-02-14T08:18:33.205Z,2.52
2023-02-14T08:20:59.992Z,2.61
2023-02-14T08:23:26.843Z,3.38
2023-02-14T08:25:53.420Z,3.21
2023-02-14T08:28:23.702Z,2.07
2023-02-14T08:30:50.413Z,2.47
2023-02-14T08:33:16.943Z,2.55
2023-02-14T08:35:43.545Z,3.42
2023-02-14T08:38:10.276Z,3.42
2023-02-14T08:40:37.028Z,3.23
2023-02-14T08:43:04.120Z,3.17
2023-02-14T08:45:31.376Z,1.89
2023-02-14T08:48:01.606Z,1.20
2023-02-14T08:50:28.183Z,0.62
2023-02-14T08:52:54.583Z,0.35
2023-02-14T08:55:21.071Z,0.52
2023-02-14T08:57:48.637Z,0.38
2023-02-14T09:00:15.958Z,0.22
2023-02-14T09:02:43.093Z,-0.05
2023-02-14T09:05:09.982Z,0.12
2023-02-14T09:07:36.466Z,0.06
2023-02-14T09:10:03.444Z,0.07
2023-02-14T09:12:29.890Z,0.13
2023-02-14T09:14:56.277Z,0.33
2023-02-14T09:17:24.024Z,0.55
2023-02-14T09:19:51.133Z,0.53
2023-02-14T09:22:19.481Z,0.83
2023-02-14T09:24:46.008Z,0.91
2023-02-14T09:27:12.454Z,1.28
2023-02-14T09:29:38.882Z,1.31
2023-02-14T09:32:05.360Z,1.52
2023-02-14T09:34:51.403Z,1.57
2023-02-14T09:37:36.483Z,1.49
2023-02-14T09:40:06.436Z,1.40
2023-02-14T09:42:54.013Z,1.46
2023-02-14T09:45:24.230Z,1.62
2023-02-14T09:47:53.709Z,1.86
2023-02-14T09:50:25.254Z,1.86
2023-02-14T09:52:56.474Z,1.63
2023-02-14T09:55:26.606Z,1.43
2023-02-14T09:58:07.595Z,1.47
2023-02-14T10:00:38.224Z,0.93
2023-02-14T10:03:33.240Z,1.18
2023-02-14T10:06:07.896Z,1.17
2023-02-14T10:08:47.462Z,1.24
2023-02-14T10:11:19.620Z,1.36
2023-02-14T10:13:51.021Z,1.52
2023-02-14T10:16:26.422Z,1.37
2023-02-14T10:18:57.432Z,1.70
2023-02-14T10:21:28.655Z,1.96
2023-02-14T10:24:01.458Z,2.20
2023-02-14T10:26:41.214Z,2.38
2023-02-14T10:29:12.812Z,2.65
2023-02-14T10:31:49.497Z,2.71
2023-02-14T10:34:24.232Z,2.84
2023-02-14T10:37:02.100Z,2.84
2023-02-14T10:39:53.068Z,2.72
2023-02-14T10:42:29.341Z,2.92
2023-02-14T10:45:06.618Z,3.41
2023-02-14T10:47:41.541Z,3.86
2023-02-14T10:50:17.397Z,4.05
2023-02-14T10:52:52.518Z,4.06
2023-02-14T10:55:32.499Z,4.17
2023-02-14T10:58:03.725Z,3.88
2023-02-14T11:00:33.897Z,4.05
2023-02-14T11:03:05.102Z,4.36
2023-02-14T11:05:35.186Z,4.69
2023-02-14T11:08:02.998Z,4.76
2023-02-14T11:10:34.917Z,4.72
2023-02-14T11:13:01.356Z,4.83
2023-02-14T11:15:32.080Z,4.79
2023-02-14T11:18:13.369Z,4.77
2023-02-14T11:20:39.941Z,4.84
2023-02-14T11:23:19.637Z,4.76
2023-02-14T11:25:51.562Z,4.88
2023-02-14T11:28:19.413Z,5.12
2023-02-14T11:30:48.880Z,5.20
2023-02-14T11:33:28.965Z,5.55
2023-02-14T11:35:56.729Z,5.98
2023-02-14T11:38:29.703Z,6.04
2023-02-14T11:40:59.151Z,5.85
2023-02-14T11:43:34.088Z,5.79
2023-02-14T11:46:07.397Z,6.07
2023-02-14T11:48:38.853Z,6.16
2023-02-14T11:51:08.517Z,6.24
2023-02-14T11:53:44.145Z,6.35
2023-02-14T11:56:11.583Z,6.43
2023-02-14T11:58:41.556Z,6.38
2023-02-14T12:01:11.955Z,6.54
2023-02-14T12:03:45.511Z,6.88
2023-02-14T12:06:22.612Z,6.71
2023-02-14T12:08:49.184Z,6.91
2023-02-14T12:11:21.514Z,7.32
2023-02-14T12:13:53.310Z,7.37
2023-02-14T12:16:25.537Z,7.34
2023-02-14T12:18:59.305Z,7.03
2023-02-14T12:21:37.532Z,7.25
2023-02-14T12:24:12.758Z,7.30
2023-02-14T12:26:45.763Z,7.50
2023-02-14T12:29:17.817Z,7.69
2023-02-14T12:31:46.664Z,8.01
2023-02-14T12:34:14.369Z,8.24
2023-02-14T12:37:07.762Z,7.74
2023-02-14T12:39:41.391Z,8.01
2023-02-14T12:42:32.218Z,8.16
2023-02-14T12:45:08.081Z,8.47
2023-02-14T12:48:02.315Z,8.64
2023-02-14T12:50:43.603Z,9.04
2023-02-14T12:54:02.832Z,8.86
2023-02-14T12:56:41.803Z,8.40
2023-02-14T12:59:22.466Z,8.34
2023-02-14T13:02:38.638Z,8.49
2023-02-14T13:05:19.478Z,8.62
2023-02-14T13:07:59.351Z,8.52
2023-02-14T13:10:40.461Z,8.98
2023-02-14T13:13:19.276Z,8.78
2023-02-14T13:15:55.013Z,9.08
2023-02-14T13:18:35.839Z,9.33
2023-02-14T13:21:06.097Z,9.32
2023-02-14T13:23:37.892Z,9.08
2023-02-14T13:26:11.036Z,9.16
2023-02-14T13:28:38.772Z,9.22
2023-02-14T13:31:06.503Z,9.28
2023-02-14T13:33:37.690Z,9.16
2023-02-14T13:36:07.801Z,9.55
2023-02-14T13:38:41.510Z,9.01
2023-02-14T13:41:09.348Z,9.20
2023-02-14T13:43:50.549Z,9.32
2023-02-14T13:46:22.218Z,9.64
2023-02-14T13:48:58.535Z,9.63
2023-02-14T13:51:47.090Z,9.67
2023-02-14T13:54:31.203Z,9.40
2023-02-14T13:57:02.421Z,9.82
2023-02-14T13:59:31.774Z,9.75
2023-02-14T14:03:13.112Z,9.90
2023-02-14T14:06:03.545Z,9.57
2023-02-14T14:08:42.225Z,9.49
2023-02-14T14:12:00.483Z,9.49
2023-02-14T14:14:35.539Z,9.32
2023-02-14T14:17:05.158Z,9.32
2023-02-14T14:19:45.071Z,9.55
2023-02-14T14:22:15.816Z,9.64
2023-02-14T14:24:57.176Z,9.23
2023-02-14T14:27:27.131Z,9.29
2023-02-14T14:29:55.171Z,9.20
2023-02-14T14:32:27.012Z,9.44
2023-02-14T14:34:57.044Z,10.29
2023-02-14T14:37:28.134Z,10.14
2023-02-14T14:39:56.282Z,10.03
2023-02-14T14:42:24.899Z,9.70
2023-02-14T14:44:57.671Z,9.47
2023-02-14T14:47:26.436Z,9.92
2023-02-14T14:49:59.783Z,9.78
2023-02-14T14:52:32.689Z,9.65
2023-02-14T14:55:00.496Z,9.19
2023-02-14T14:57:27.178Z,9.07
2023-02-14T15:00:17.580Z,9.44
2023-02-14T15:02:55.142Z,9.49
2023-02-14T15:05:26.233Z,9.48
2023-02-14T15:07:52.655Z,9.44
2023-02-14T15:10:24.119Z,9.24
2023-02-14T15:13:10.166Z,8.97
2023-02-14T15:15:36.787Z,8.80
2023-02-14T15:18:05.566Z,8.69
2023-02-14T15:20:33.044Z,8.72
2023-02-14T15:22:59.532Z,8.53
2023-02-14T15:25:28.953Z,8.31
2023-02-14T15:27:56.522Z,8.61
2023-02-14T15:30:28.426Z,9.56
2023-02-14T15:32:55.626Z,9.55
2023-02-14T15:35:25.060Z,9.56
2023-02-14T15:37:53.139Z,10.03
2023-02-14T15:40:23.454Z,9.29
2023-02-14T15:42:55.734Z,9.02
2023-02-14T15:45:28.837Z,8.96
2023-02-14T15:47:57.356Z,8.67
2023-02-14T15:50:27.076Z,8.95
2023-02-14T15:52:57.155Z,8.52
2023-02-14T15:55:26.155Z,9.02
2023-02-14T15:57:56.490Z,8.69
2023-02-14T16:00:24.811Z,7.59
2023-02-14T16:02:55.362Z,7.17
2023-02-14T16:05:24.091Z,6.72
2023-02-14T16:08:00.384Z,6.40
2023-02-14T16:10:28.711Z,6.23
2023-02-14T16:12:58.342Z,6.09
2023-02-14T16:15:26.774Z,5.91
2023-02-14T16:17:53.322Z,5.71
2023-02-14T16:20:25.712Z,5.51
2023-02-14T16:22:52.353Z,5.31
2023-02-14T16:25:19.399Z,5.17
2023-02-14T16:27:48.837Z,5.09
2023-02-14T16:30:17.001Z,5.04
2023-02-14T16:32:47.862Z,5.02
2023-02-14T16:35:17.852Z,4.90
2023-02-14T16:37:45.922Z,4.70
2023-02-14T16:40:15.211Z,4.54
2023-02-14T16:42:42.891Z,4.40
2023-02-14T16:45:15.690Z,4.29
2023-02-14T16:47:42.346Z,4.26
2023-02-14T16:50:11.659Z,3.98
2023-02-14T16:52:40.488Z,3.68
2023-02-14T16:55:14.867Z,3.67
2023-02-14T16:57:47.623Z,3.55
2023-02-14T17:00:15.190Z,3.58
2023-02-14T17:02:44.163Z,3.51
2023-02-14T17:05:11.148Z,3.40
2023-02-14T17:07:39.555Z,3.23
2023-02-14T17:10:14.399Z,3.20
2023-02-14T17:12:43.722Z,3.04
2023-02-14T17:15:14.438Z,2.97
2023-02-14T17:17:42.826Z,2.85
2023-02-14T17:20:09.978Z,2.72
2023-02-14T17:22:36.684Z,2.57
2023-02-14T17:25:06.266Z,2.60
2023-02-14T17:27:32.862Z,2.57
2023-02-14T17:30:00.445Z,2.42
2023-02-14T17:32:27.381Z,2.46
2023-02-14T17:34:54.106Z,2.26
2023-02-14T17:37:20.899Z,2.21
2023-02-14T17:39:51.993Z,2.16
2023-02-14T17:42:18.600Z,2.19
2023-02-14T17:44:45.298Z,2.07
2023-02-14T17:47:14.365Z,1.93
2023-02-14T17:49:41.012Z,1.73
2023-02-14T17:52:10.971Z,1.82
2023-02-14T17:54:37.984Z,1.66
2023-02-14T17:57:06.272Z,1.52
2023-02-14T17:59:33.843Z,1.35
2023-02-14T18:02:02.227Z,1.33
2023-02-14T18:04:30.093Z,1.07
2023-02-14T18:06:56.843Z,1.03
2023-02-14T18:09:25.681Z,1.14
2023-02-14T18:11:52.201Z,1.05
2023-02-14T18:14:18.591Z,1.04
2023-02-14T18:16:45.479Z,0.97
2023-02-14T18:19:14.987Z,0.92
2023-02-14T18:21:43.718Z,0.92
2023-02-14T18:24:11.084Z,0.71
2023-02-14T18:26:39.786Z,0.45
2023-02-14T18:29:07.235Z,0.59
2023-02-14T18:31:36.234Z,0.63
2023-02-14T18:34:04.074Z,0.65
2023-02-14T18:36:32.917Z,0.70
2023-02-14T18:39:00.171Z,1.05
2023-02-14T18:41:27.232Z,1.08
2023-02-14T18:43:53.714Z,0.96
2023-02-14T18:46:21.855Z,0.84
2023-02-14T18:48:48.432Z,0.86
2023-02-14T18:51:17.352Z,0.80
2023-02-14T18:53:45.355Z,0.99
2023-02-14T18:56:14.187Z,1.12
2023-02-14T18:58:42.762Z,1.13
2023-02-14T19:01:09.745Z,1.08
2023-02-14T19:03:36.218Z,1.07
2023-02-14T19:06:02.889Z,1.18
2023-02-14T19:08:30.758Z,1.19
2023-02-14T19:10:57.249Z,1.13
2023-02-14T19:13:28.428Z,1.23
2023-02-14T19:19:01.670Z,1.27
2023-02-14T19:21:30.263Z,1.38
2023-02-14T19:23:57.625Z,1.39
2023-02-14T19:26:26.166Z,1.62
2023-02-14T19:28:56.062Z,1.51
2023-02-14T19:31:22.957Z,1.50
2023-02-14T19:33:50.275Z,1.53
2023-02-14T19:36:18.971Z,1.48
2023-02-14T19:38:46.887Z,1.48
2023-02-14T19:41:16.072Z,1.46
2023-02-14T19:43:42.802Z,1.28
2023-02-14T19:46:09.944Z,1.31
2023-02-14T19:48:36.608Z,1.38
2023-02-14T19:51:03.495Z,1.38
2023-02-14T19:53:30.120Z,1.38
2023-02-14T19:55:58.892Z,1.40
2023-02-14T19:58:26.177Z,1.26
2023-02-14T20:00:58.050Z,1.20
2023-02-14T20:03:26.367Z,1.17
2023-02-14T20:05:52.839Z,1.25
2023-02-14T20:08:21.823Z,1.10
2023-02-14T20:10:48.244Z,1.03
2023-02-14T20:13:15.027Z,1.00
2023-02-14T20:15:41.544Z,1.04
2023-02-14T20:18:08.013Z,1.03
2023-02-14T20:20:49.727Z,0.80
2023-02-14T20:23:16.395Z,0.81
2023-02-14T20:25:42.815Z,0.75
2023-02-14T20:28:09.277Z,0.72
2023-02-14T20:30:38.481Z,0.72
2023-02-14T20:33:05.448Z,0.72
2023-02-14T20:35:37.316Z,0.55
2023-02-14T20:38:06.956Z,0.66
2023-02-14T20:40:37.101Z,0.67
2023-02-14T20:43:03.515Z,0.72
2023-02-14T20:45:30.292Z,0.73
2023-02-14T20:47:58.360Z,0.71
2023-02-14T20:50:26.126Z,0.80
2023-02-14T20:52:54.462Z,0.88
2023-02-14T20:55:21.484Z,1.02
2023-02-14T20:57:47.892Z,0.96
2023-02-14T21:00:14.716Z,1.03
2023-02-14T21:02:41.123Z,0.77
2023-02-14T21:05:07.838Z,0.70
2023-02-14T21:07:34.198Z,0.81
2023-02-14T21:10:00.932Z,0.83
2023-02-14T21:12:27.980Z,1.06
2023-02-14T21:14:54.385Z,1.07
2023-02-14T21:17:20.853Z,0.92
2023-02-14T21:19:47.328Z,0.98
2023-02-14T21:22:14.853Z,0.94
2023-02-14T21:24:41.244Z,0.97
2023-02-14T21:27:07.680Z,1.08
2023-02-14T21:29:34.856Z,1.19
2023-02-14T21:32:03.671Z,0.98
2023-02-14T21:34:30.615Z,1.09
2023-02-14T21:36:57.007Z,0.97
2023-02-14T21:39:26.674Z,0.74
2023-02-14T21:41:53.344Z,0.53
2023-02-14T21:44:41.860Z,0.58
2023-02-14T21:47:08.971Z,0.71
2023-02-14T21:49:55.413Z,0.84
2023-02-14T21:52:24.577Z,0.78
2023-02-14T21:54:51.279Z,0.77
2023-02-14T21:57:20.608Z,0.84
2023-02-14T21:59:49.333Z,0.89
2023-02-14T22:02:17.823Z,0.93
2023-02-14T22:04:46.322Z,1.05
2023-02-14T22:07:12.894Z,1.01
2023-02-14T22:09:42.301Z,0.83
2023-02-14T22:12:08.981Z,0.62
2023-02-14T22:14:35.590Z,0.62
2023-02-14T22:17:02.090Z,0.47
2023-02-14T22:19:29.318Z,0.36
2023-02-14T22:21:55.822Z,0.31
2023-02-14T22:24:22.190Z,0.10
2023-02-14T22:26:48.557Z,0.25
2023-02-14T22:29:15.014Z,0.53
2023-02-14T22:31:43.185Z,0.57
2023-02-14T22:34:12.611Z,0.50
2023-02-14T22:36:39.847Z,0.52
2023-02-14T22:39:06.345Z,0.63
2023-02-14T22:41:36.818Z,0.51
2023-02-14T22:44:04.337Z,0.44
2023-02-14T22:46:30.897Z,0.27
2023-02-14T22:48:57.861Z,0.29
2023-02-14T22:51:26.694Z,0.33
2023-02-14T22:53:55.598Z,0.31
2023-02-14T22:56:23.857Z,0.43
2023-02-14T22:58:53.054Z,0.39
2023-02-14T23:01:20.862Z,0.55
2023-02-14T23:03:48.283Z,0.66
2023-02-14T23:06:15.198Z,0.78
2023-02-14T23:08:43.158Z,0.72
2023-02-14T23:11:12.515Z,0.60
2023-02-14T23:13:57.616Z,0.64
2023-02-14T23:16:43.002Z,0.76
2023-02-14T23:19:30.269Z,0.84
2023-02-14T23:21:57.570Z,0.92
2023-02-14T23:24:24.646Z,0.86
2023-02-14T23:26:54.467Z,0.69
2023-02-14T23:29:21.102Z,0.60
2023-02-14T23:31:47.656Z,0.55
2023-02-14T23:34:14.070Z,0.49
2023-02-14T23:36:40.731Z,0.33
2023-02-14T23:39:07.169Z,0.24
2023-02-14T23:41:48.975Z,0.29
2023-02-14T23:44:17.973Z,0.36
2023-02-14T23:46:44.825Z,0.39
2023-02-14T23:49:12.868Z,0.36
2023-02-14T23:51:39.641Z,0.40
2023-02-14T23:54:06.381Z,0.29
2023-02-14T23:56:33.447Z,0.27
2023-02-14T23:58:59.779Z,0.33
